Bookmark and Share
Track history (hours):
 

Delta Poseidon

Last reported at 2014-Apr-16 15:33 UTC. Time now 2014-Apr-23 09:29 UTC.
Position N 35°57' W 005°40'.

Length 274 m; draft 9 m.

Type: Tanker. MMSI: 241086000.

NotesDate/timePositionNaut miles runAvg speedWind from/ knotsBaromVisibWave heightAir tempDewpointWater temp
2014-Apr-16 15:33N 35°57' W 005°40'8 7.7
2014-Apr-16 14:33N 35°59' W 005°30'7 6.9
2014-Apr-16 13:33N 36°03' W 005°23'7 6.8
2014-Apr-16 12:33N 36°10' W 005°25'0 0.1
2014-Apr-16 11:33N 36°10' W 005°25'0 0.1
2014-Apr-16 10:33N 36°10' W 005°25'0 0.1
2014-Apr-16 09:33N 36°09' W 005°25'0 0.1
2014-Apr-16 08:30N 36°09' W 005°25'0 0.0
2014-Apr-16 07:33N 36°09' W 005°25'0 0.0
2014-Apr-16 06:33N 36°09' W 005°25'0 0.1
2014-Apr-16 05:33N 36°09' W 005°25'0 0.2
2014-Apr-16 04:33N 36°10' W 005°25'0 0.0
2014-Apr-16 03:33N 36°10' W 005°25'1 0.5
2014-Apr-16 02:33N 36°10' W 005°25'0 0.0
2014-Apr-16 01:33N 36°10' W 005°25'0 0.0
2014-Apr-16 00:33N 36°10' W 005°25'0 0.0
2014-Apr-15 23:33N 36°10' W 005°25'0 0.1
2014-Apr-15 22:33N 36°10' W 005°25'0 0.1
2014-Apr-15 21:33N 36°10' W 005°25'0 0.1
2014-Apr-15 20:33N 36°10' W 005°25'0 0.0
2014-Apr-15 19:33N 36°10' W 005°25'0 0.1
2014-Apr-15 18:33N 36°10' W 005°25'0 0.1
2014-Apr-15 17:33N 36°10' W 005°25'0 0.0
2014-Apr-15 16:30N 36°10' W 005°25'0 0.1
2014-Apr-15 15:33N 36°10' W 005°25'0 0.0
2014-Apr-15 14:33N 36°10' W 005°25'0 0.0
2014-Apr-15 12:33N 36°10' W 005°25'0 0.0
2014-Apr-15 11:33N 36°10' W 005°25'0 0.0
2014-Apr-15 03:34N 36°10' W 005°25'4 3.7
2014-Apr-15 02:34N 36°06' W 005°23'7 6.9
2014-Apr-15 01:34N 35°59' W 005°24'1110.9
2014-Apr-15 00:32N 35°55' W 005°37'10 9.6
2014-Apr-14 23:30N 35°55' W 005°49'9 9.7
2014-Apr-14 22:34N 35°54' W 006°00'  
2014-Apr-08 06:31N 10°30' W 018°22'12311.3
2014-Apr-07 19:33N 08°43' W 017°19'3510.7
2014-Apr-07 16:17N 08°21' W 016°51'  

Dump ship's entire track history

sailing weather and tide predictions

Delta Poseidon — SVBF6 — position and weather